Time;durP1;ratioP1;P1;durP2;ratioP2;P2;SDS_P1;SDS_P2;PMS_P1;PMS_P2;Temp;Humidity;BMP_temperature;BMP_pressure;BME280_temperature;BME280_humidity;BME280_pressure;Samples;Min_cycle;Max_cycle;Signal;HPM_P1;HPM_P2
2022/04/30 00:00:19;;;;;;;;;;;13.50;56.00;;;;;;5112708;27;20421;-83
2022/04/30 00:02:45;;;;;;;6.50;3.17;;;13.40;56.60;;;;;;5131574;27;19915;-82
2022/04/30 00:05:11;;;;;;;;;;;13.40;57.00;;;;;;5113552;27;20023;-82
2022/04/30 00:07:36;;;;;;;7.05;2.95;;;13.30;58.10;;;;;;5131353;27;20331;-82
2022/04/30 00:10:03;;;;;;;;;;;13.10;58.10;;;;;;5114284;27;20027;-81
2022/04/30 00:12:29;;;;;;;5.00;3.20;;;13.10;59.00;;;;;;5112836;27;19912;-82
2022/04/30 00:14:55;;;;;;;;;;;13.00;59.20;;;;;;5113822;27;20023;-82
2022/04/30 00:17:20;;;;;;;5.63;3.55;;;13.00;58.90;;;;;;5113018;27;19986;-82
2022/04/30 00:19:46;;;;;;;;;;;13.00;58.90;;;;;;5113877;27;20062;-82
2022/04/30 00:22:12;;;;;;;6.65;2.97;;;13.10;59.30;;;;;;5113185;27;19915;-81
2022/04/30 00:24:38;;;;;;;;;;;13.00;59.70;;;;;;5113702;27;20015;-83
2022/04/30 00:27:05;;;;;;;9.50;3.45;;;13.00;59.50;;;;;;5113272;27;19903;-80
2022/04/30 00:29:31;;;;;;;6.78;3.03;;;13.00;59.10;;;;;;5112744;27;20429;-81
2022/04/30 00:32:00;;;;;;;5.28;3.03;;;13.00;59.20;;;;;;5112797;27;20027;-82
2022/04/30 00:34:26;;;;;;;8.05;3.03;;;13.10;59.00;;;;;;5112433;27;20048;-81
2022/04/30 00:36:51;;;;;;;;;;;13.20;58.30;;;;;;5112668;27;20568;-81
2022/04/30 00:39:17;;;;;;;6.63;2.83;;;13.20;58.10;;;;;;5112505;27;19903;-80
2022/04/30 00:41:44;;;;;;;;;;;13.10;57.70;;;;;;5112588;27;20039;-80
2022/04/30 00:44:10;;;;;;;7.47;2.60;;;13.20;57.90;;;;;;5112220;27;20387;-81
2022/04/30 00:46:36;;;;;;;;;;;13.10;58.10;;;;;;5112684;27;20042;-82
2022/04/30 00:49:02;;;;;;;7.63;2.40;;;13.20;57.60;;;;;;5113387;27;19904;-82
2022/04/30 00:51:29;;;;;;;4.90;2.70;;;13.20;57.60;;;;;;5114589;27;20042;-82
2022/04/30 00:53:56;;;;;;;6.55;2.70;;;13.20;57.70;;;;;;5114406;27;20023;-83
2022/04/30 00:56:32;;;;;;;7.03;2.65;;;13.10;57.90;;;;;;5113843;27;20034;-82
2022/04/30 00:59:00;;;;;;;;;;;13.10;58.30;;;;;;5114472;27;20099;-81
2022/04/30 01:01:27;;;;;;;6.18;2.80;;;13.00;58.30;;;;;;5114827;28;19940;-83
2022/04/30 01:03:53;;;;;;;14.75;2.33;;;12.90;59.00;;;;;;5114707;27;20050;-83
2022/04/30 01:06:24;;;;;;;;;;;12.80;59.30;;;;;;5113985;28;20499;-82
2022/04/30 01:08:49;;;;;;;5.43;2.40;;;12.80;59.70;;;;;;5113806;28;19960;-83
2022/04/30 01:11:16;;;;;;;;;;;12.70;60.00;;;;;;5114949;28;20031;-84
2022/04/30 01:13:43;;;;;;;6.10;2.17;;;12.70;60.40;;;;;;5114166;28;20397;-83
2022/04/30 01:16:12;;;;;;;5.38;2.35;;;12.60;60.30;;;;;;5114287;28;20535;-83
2022/04/30 01:18:38;;;;;;;5.45;2.60;;;12.70;60.20;;;;;;5114489;28;20503;-83
2022/04/30 01:21:10;;;;;;;;;;;12.70;60.30;;;;;;5114956;28;20088;-84
2022/04/30 01:23:36;;;;;;;7.20;2.63;;;12.70;60.00;;;;;;5133024;28;19907;-83
2022/04/30 01:26:02;;;;;;;;;;;12.70;60.90;;;;;;5114897;28;20035;-83
2022/04/30 01:28:28;;;;;;;4.57;2.65;;;12.70;60.30;;;;;;5114583;28;19904;-84
2022/04/30 01:30:55;;;;;;;7.60;3.13;;;12.70;60.50;;;;;;5114407;28;20020;-83
2022/04/30 01:38:49;;;;;;;8.43;3.22;;;12.60;61.10;;;;;;5133037;28;20070;-83
2022/04/30 01:41:15;;;;;;;;;;;12.60;61.70;;;;;;5115147;28;20486;-84
2022/04/30 01:43:40;;;;;;;7.55;3.47;;;12.60;61.80;;;;;;5133122;28;20367;-84
2022/04/30 01:46:06;;;;;;;;;;;12.50;62.00;;;;;;5115556;27;20058;-83
2022/04/30 01:48:33;;;;;;;8.05;3.20;;;12.50;62.00;;;;;;5118925;27;19909;-84
2022/04/30 01:50:59;;;;;;;5.20;2.47;;;12.50;62.00;;;;;;5137328;27;20483;-84
2022/04/30 01:53:25;;;;;;;8.07;3.17;;;12.50;61.90;;;;;;5118527;27;20034;-83
2022/04/30 01:55:51;;;;;;;;;;;12.50;62.00;;;;;;5117724;27;20027;-83
2022/04/30 01:58:17;;;;;;;7.97;3.28;;;12.60;61.90;;;;;;5118431;27;19915;-84
2022/04/30 02:00:43;;;;;;;;;;;12.60;61.50;;;;;;5119235;27;20068;-85
2022/04/30 02:03:12;;;;;;;4.93;3.10;;;12.60;61.40;;;;;;5116906;27;19918;-79
2022/04/30 02:05:40;;;;;;;5.07;3.10;;;12.60;61.60;;;;;;5114548;27;20023;-79
2022/04/30 02:08:10;;;;;;;6.88;3.58;;;12.50;61.50;;;;;;5114781;27;20019;-80
2022/04/30 02:10:37;;;;;;;7.20;2.97;;;12.50;61.60;;;;;;5133202;27;20114;-79
2022/04/30 02:13:06;;;;;;;7.95;3.30;;;12.50;62.30;;;;;;5117451;27;20023;-80
2022/04/30 02:15:33;;;;;;;6.32;2.90;;;12.40;62.30;;;;;;5133223;27;20035;-80
2022/04/30 02:18:00;;;;;;;9.88;2.90;;;12.40;62.50;;;;;;5114941;27;20057;-79
2022/04/30 02:20:29;;;;;;;5.57;2.83;;;12.40;62.30;;;;;;5114574;27;20130;-80
2022/04/30 02:22:57;;;;;;;5.38;2.88;;;12.40;63.00;;;;;;5134058;27;20023;-81
2022/04/30 02:25:23;;;;;;;5.32;3.13;;;12.30;63.10;;;;;;5134446;27;20436;-82
2022/04/30 02:27:51;;;;;;;;;;;12.30;62.90;;;;;;5117055;27;20026;-81
2022/04/30 02:30:21;;;;;;;6.85;3.58;;;12.30;63.30;;;;;;5116048;27;20367;-80
2022/04/30 02:32:52;;;;;;;5.88;3.22;;;12.30;63.80;;;;;;5134494;27;20030;-82
2022/04/30 02:35:29;;;;;;;7.90;3.30;;;12.20;64.10;;;;;;5116290;27;20023;-82
2022/04/30 02:37:56;;;;;;;4.78;2.88;;;12.20;64.50;;;;;;5133052;27;20092;-81
2022/04/30 02:40:24;;;;;;;5.82;2.88;;;12.10;64.90;;;;;;5113769;27;20030;-81
2022/04/30 02:42:51;;;;;;;5.55;2.50;;;12.10;64.90;;;;;;5115246;27;20049;-80
2022/04/30 02:45:18;;;;;;;7.93;2.75;;;12.10;65.40;;;;;;5114858;27;20047;-81
2022/04/30 02:47:48;;;;;;;5.65;2.67;;;12.00;66.50;;;;;;5115279;27;20061;-80
2022/04/30 02:50:17;;;;;;;5.30;3.08;;;11.90;68.40;;;;;;5114911;27;20022;-81
2022/04/30 02:52:43;;;;;;;3.92;2.55;;;11.80;69.80;;;;;;5133276;27;20031;-81
2022/04/30 02:55:09;;;;;;;;;;;11.70;69.70;;;;;;5133315;27;20392;-81
2022/04/30 02:59:53;;;;;;;6.43;3.00;;;11.70;69.80;;;;;;5104833;28;20003;-80
2022/04/30 03:00:39;;;;;;;7.63;3.13;;;11.70;69.70;;;;;;5092022;28;20051;-80
2022/04/30 03:03:06;;;;;;;;;;;11.70;69.60;;;;;;5091290;28;20027;-82
2022/04/30 03:05:32;;;;;;;6.35;3.97;;;11.70;70.50;;;;;;5090538;28;19915;-81
2022/04/30 03:08:00;;;;;;;6.90;3.10;;;11.70;70.80;;;;;;5090658;28;20031;-81
2022/04/30 03:10:26;;;;;;;5.47;3.38;;;11.60;71.30;;;;;;5090539;28;20024;-80
2022/04/30 03:12:52;;;;;;;;;;;11.60;71.70;;;;;;5090675;28;20437;-78
2022/04/30 03:15:20;;;;;;;5.38;3.28;;;11.60;71.70;;;;;;5093523;28;19961;-84
2022/04/30 03:23:15;;;;;;;5.93;3.30;;;11.60;71.30;;;;;;5093478;28;20038;-82
2022/04/30 03:25:40;;;;;;;;;;;11.70;71.00;;;;;;5092542;28;20020;-86
2022/04/30 03:28:06;;;;;;;5.20;3.25;;;11.70;70.50;;;;;;5093727;28;19910;-84
2022/04/30 03:30:32;;;;;;;;;;;11.70;70.00;;;;;;5093461;28;20119;-84
2022/04/30 03:32:57;;;;;;;5.90;3.08;;;11.80;70.70;;;;;;5093476;28;19915;-82
2022/04/30 03:35:23;;;;;;;;;;;11.80;70.10;;;;;;5092955;28;20111;-83
2022/04/30 03:37:49;;;;;;;6.10;3.08;;;11.80;70.10;;;;;;5091395;28;19908;-82
2022/04/30 03:40:14;;;;;;;;;;;11.80;69.90;;;;;;5091838;28;20507;-82
2022/04/30 03:42:40;;;;;;;6.43;3.22;;;11.80;70.10;;;;;;5090620;28;19916;-81
2022/04/30 03:45:07;;;;;;;;;;;11.80;70.60;;;;;;5091416;28;20031;-82
2022/04/30 03:47:32;;;;;;;7.85;2.90;;;11.90;69.90;;;;;;5089270;28;19904;-81
2022/04/30 03:49:59;;;;;;;;;;;11.90;69.50;;;;;;5090965;28;20026;-86
2022/04/30 03:52:25;;;;;;;5.88;3.15;;;12.00;69.90;;;;;;5092944;28;19904;-84
2022/04/30 03:54:51;;;;;;;7.40;3.50;;;12.00;69.40;;;;;;5092934;28;20031;-84
2022/04/30 03:57:16;;;;;;;8.60;3.30;;;12.10;69.40;;;;;;5092473;28;20131;-85
2022/04/30 03:59:42;;;;;;;;;;;12.20;68.30;;;;;;5094177;28;20032;-83
2022/04/30 04:02:07;;;;;;;4.65;2.67;;;12.20;67.90;;;;;;5091628;28;19912;-81
2022/04/30 04:04:33;;;;;;;;;;;12.30;67.80;;;;;;5092194;28;20031;-86
2022/04/30 04:06:59;;;;;;;5.13;2.67;;;12.40;67.80;;;;;;5092319;28;19908;-84
2022/04/30 04:09:24;;;;;;;;;;;12.50;67.20;;;;;;5092310;28;20021;-83
2022/04/30 04:11:50;;;;;;;5.90;2.50;;;12.60;66.10;;;;;;5093379;28;20371;-87
2022/04/30 04:19:44;;;;;;;5.07;3.05;;;13.30;62.20;;;;;;5092610;28;20034;-86
2022/04/30 04:22:09;;;;;;;;;;;13.60;59.40;;;;;;5092609;28;20412;-83
2022/04/30 04:27:19;;;;;;;5.10;2.50;;;14.10;57.20;;;;;;5089902;28;20039;-85
2022/04/30 04:29:47;;;;;;;;;;;14.40;54.70;;;;;;5079182;28;20416;-87
2022/04/30 04:32:13;;;;;;;8.57;2.63;;;14.50;53.70;;;;;;5080736;28;19915;-87
2022/04/30 04:34:39;;;;;;;;;;;14.60;53.00;;;;;;5092126;28;20028;-87
2022/04/30 04:37:05;;;;;;;8.20;2.05;;;14.90;51.80;;;;;;5092289;28;19904;-87
2022/04/30 04:39:30;;;;;;;;;;;15.00;50.90;;;;;;5076360;28;20024;-87
2022/04/30 04:41:56;;;;;;;4.28;1.70;;;15.20;50.40;;;;;;5071948;28;19927;-86
2022/04/30 04:44:22;;;;;;;;;;;15.30;49.70;;;;;;5072073;28;20025;-87
2022/04/30 04:46:48;;;;;;;4.38;2.00;;;15.40;49.10;;;;;;5080548;28;20007;-87
2022/04/30 04:49:14;;;;;;;3.42;1.85;;;15.50;48.70;;;;;;5071819;28;20028;-86
2022/04/30 04:51:40;;;;;;;3.28;1.73;;;15.70;47.90;;;;;;5071918;28;20108;-86
2022/04/30 04:54:06;;;;;;;;;;;16.00;46.80;;;;;;5078311;28;20560;-87
2022/04/30 04:56:32;;;;;;;6.38;2.08;;;16.10;46.30;;;;;;5075735;28;20376;-87
2022/04/30 04:58:58;;;;;;;4.03;2.00;;;16.30;45.30;;;;;;5071336;28;20044;-86
2022/04/30 05:01:24;;;;;;;3.13;1.70;;;16.50;44.80;;;;;;5071846;28;20033;-87
2022/04/30 05:03:50;;;;;;;5.95;1.90;;;16.70;43.70;;;;;;5071865;28;20052;-86
2022/04/30 05:06:16;;;;;;;;;;;16.80;43.80;;;;;;5073306;28;20500;-88
2022/04/30 05:08:41;;;;;;;4.20;1.88;;;16.90;42.80;;;;;;5072164;28;19905;-86
2022/04/30 05:11:07;;;;;;;;;;;17.10;42.50;;;;;;5072717;28;20039;-88
2022/04/30 05:13:33;;;;;;;3.40;1.80;;;17.30;41.80;;;;;;5072036;28;19911;-86
2022/04/30 05:15:58;;;;;;;4.43;2.20;;;17.40;40.80;;;;;;5070008;28;20575;-87
2022/04/30 05:18:24;;;;;;;;;;;17.60;40.70;;;;;;5070810;28;20054;-87
2022/04/30 05:20:50;;;;;;;2.70;1.67;;;17.90;40.10;;;;;;5071204;28;19989;-86
2022/04/30 05:23:15;;;;;;;4.38;1.65;;;17.90;39.60;;;;;;5075503;28;20119;-85
2022/04/30 05:25:41;;;;;;;;;;;17.90;39.60;;;;;;5091929;28;20024;-86
2022/04/30 05:28:07;;;;;;;3.97;1.80;;;17.90;39.50;;;;;;5076575;28;20353;-86
2022/04/30 05:30:33;;;;;;;3.95;1.80;;;18.00;39.40;;;;;;5076578;28;20036;-87
2022/04/30 05:32:59;;;;;;;5.18;2.15;;;18.20;38.50;;;;;;5074495;28;20024;-87
2022/04/30 05:35:25;;;;;;;6.28;2.38;;;18.40;38.30;;;;;;5083996;28;20062;-86
2022/04/30 05:37:51;;;;;;;4.93;1.95;;;18.70;37.30;;;;;;5089498;28;20028;-86
2022/04/30 05:40:18;;;;;;;5.40;2.78;;;19.10;36.50;;;;;;5095526;28;20020;-86
2022/04/30 05:42:44;;;;;;;4.70;2.10;;;19.40;36.20;;;;;;5095917;28;20060;-87
2022/04/30 05:45:10;;;;;;;4.95;1.90;;;19.70;34.60;;;;;;5095483;28;20021;-86
2022/04/30 05:47:37;;;;;;;3.17;1.83;;;19.90;34.70;;;;;;5095585;28;20032;-87
2022/04/30 05:50:04;;;;;;;4.85;1.70;;;20.00;34.10;;;;;;5095586;28;20017;-85
2022/04/30 05:52:30;;;;;;;6.10;1.90;;;20.40;32.90;;;;;;5091210;28;20480;-86
2022/04/30 05:54:56;;;;;;;6.40;2.22;;;20.70;32.70;;;;;;5093382;28;20039;-79
2022/04/30 05:57:22;;;;;;;4.97;2.13;;;21.10;32.20;;;;;;5103839;27;20492;-83
2022/04/30 05:59:47;;;;;;;3.88;2.13;;;21.40;30.90;;;;;;5118340;27;20479;-86
2022/04/30 06:02:13;;;;;;;4.50;1.77;;;21.70;30.00;;;;;;5136171;27;20073;-85
2022/04/30 06:04:39;;;;;;;5.25;2.22;;;21.90;29.80;;;;;;5136345;27;20046;-84
2022/04/30 06:07:04;;;;;;;7.55;2.00;;;22.20;29.00;;;;;;5117837;27;20118;-85
2022/04/30 06:09:30;;;;;;;4.30;2.00;;;22.10;29.40;;;;;;5118084;27;20034;-85
2022/04/30 06:11:55;;;;;;;4.15;2.15;;;22.60;28.90;;;;;;5135963;27;20031;-85
2022/04/30 06:14:21;;;;;;;3.15;1.83;;;23.00;28.40;;;;;;5117932;27;20293;-85
2022/04/30 06:16:47;;;;;;;5.45;2.38;;;23.30;27.90;;;;;;5117750;27;20031;-86
2022/04/30 06:19:12;;;;;;;3.25;1.98;;;23.40;27.20;;;;;;5117237;27;20034;-85
2022/04/30 06:21:39;;;;;;;6.28;2.42;;;23.50;27.00;;;;;;5135655;27;20054;-84
2022/04/30 06:24:05;;;;;;;6.00;1.73;;;23.60;27.00;;;;;;5135978;27;20034;-84
2022/04/30 06:26:32;;;;;;;3.90;2.00;;;23.80;27.00;;;;;;5135797;27;20072;-83
2022/04/30 06:28:58;;;;;;;7.30;2.10;;;23.60;26.20;;;;;;5134880;27;20536;-83
2022/04/30 06:31:24;;;;;;;4.65;1.85;;;23.40;27.00;;;;;;5116567;27;20023;-83
2022/04/30 06:33:52;;;;;;;2.60;2.00;;;23.30;26.50;;;;;;5115250;27;20027;-84
2022/04/30 06:36:17;;;;;;;4.28;2.35;;;23.80;26.30;;;;;;5135557;27;20047;-83
2022/04/30 06:38:43;;;;;;;4.93;1.80;;;23.60;26.30;;;;;;5115976;27;20062;-84
2022/04/30 06:41:09;;;;;;;4.60;1.90;;;23.30;26.80;;;;;;5115858;27;20080;-85
2022/04/30 06:43:34;;;;;;;4.68;1.85;;;23.20;26.90;;;;;;5115943;27;20031;-82
2022/04/30 06:46:00;;;;;;;10.40;1.98;;;23.00;26.70;;;;;;5116782;27;20019;-85
2022/04/30 06:48:26;;;;;;;4.35;1.73;;;22.80;27.60;;;;;;5117021;27;20491;-83
2022/04/30 06:50:51;;;;;;;3.20;1.67;;;22.70;27.90;;;;;;5115543;27;20071;-82
2022/04/30 06:58:59;;;;;;;4.57;1.92;;;22.30;27.40;;;;;;5134866;27;20065;-84
2022/04/30 07:01:48;;;;;;;4.18;1.77;;;22.30;27.60;;;;;;5115980;27;20035;-84
2022/04/30 07:04:16;;;;;;;3.53;1.73;;;22.10;28.20;;;;;;5116662;27;20084;-84
2022/04/30 07:06:42;;;;;;;7.07;2.03;;;22.50;27.70;;;;;;5116365;27;20015;-85
2022/04/30 07:09:08;;;;;;;4.50;1.90;;;22.40;28.20;;;;;;5116273;27;20052;-84
2022/04/30 07:11:34;;;;;;;3.83;1.73;;;22.40;28.10;;;;;;5116448;27;20015;-85
2022/04/30 07:14:00;;;;;;;4.55;1.75;;;22.30;28.40;;;;;;5116462;27;20784;-85
2022/04/30 07:16:26;;;;;;;5.68;2.92;;;22.30;27.70;;;;;;5134703;27;20044;-85
2022/04/30 07:18:51;;;;;;;4.30;1.55;;;22.30;27.60;;;;;;5115910;27;20027;-84
2022/04/30 07:21:17;;;;;;;3.88;1.80;;;22.40;27.80;;;;;;5114518;27;20138;-85
2022/04/30 07:23:43;;;;;;;3.72;1.77;;;22.20;28.30;;;;;;5116077;27;20407;-84
2022/04/30 07:26:09;;;;;;;6.55;1.70;;;22.10;27.90;;;;;;5115996;27;20027;-84
2022/04/30 07:28:35;;;;;;;7.50;2.30;;;22.30;28.20;;;;;;5115956;27;20023;-84
2022/04/30 07:31:02;;;;;;;4.57;1.60;;;22.70;26.90;;;;;;5134206;27;20019;-84
2022/04/30 07:33:28;;;;;;;5.00;1.52;;;22.50;27.90;;;;;;5116089;27;20027;-84
2022/04/30 07:35:55;;;;;;;5.22;1.98;;;22.70;27.20;;;;;;5115783;27;20023;-84
2022/04/30 07:38:21;;;;;;;6.95;2.40;;;22.80;26.90;;;;;;5115855;27;20087;-84
2022/04/30 07:40:47;;;;;;;4.35;2.10;;;22.60;27.70;;;;;;5134021;27;20094;-83
2022/04/30 07:43:13;;;;;;;6.40;2.72;;;22.50;28.20;;;;;;5133793;27;20111;-85
2022/04/30 07:45:39;;;;;;;4.05;2.28;;;22.40;28.60;;;;;;5134066;27;20038;-84
2022/04/30 07:48:05;;;;;;;3.67;2.00;;;22.50;27.90;;;;;;5115979;27;20027;-83
2022/04/30 07:50:35;;;;;;;3.47;1.90;;;22.60;28.10;;;;;;5115801;27;20015;-84
2022/04/30 07:53:03;;;;;;;5.80;2.10;;;22.80;28.10;;;;;;5115562;27;20066;-84
2022/04/30 07:55:28;;;;;;;7.07;2.30;;;22.90;28.30;;;;;;5131897;27;20027;-84
2022/04/30 07:57:54;;;;;;;5.05;2.50;;;22.90;28.10;;;;;;5114212;27;20054;-85
2022/04/30 08:00:20;;;;;;;5.63;2.60;;;23.00;28.50;;;;;;5115166;27;20031;-85
2022/04/30 08:02:47;;;;;;;8.18;2.10;;;23.10;28.10;;;;;;5133335;27;20039;-85
2022/04/30 08:05:13;;;;;;;5.45;2.20;;;23.30;28.00;;;;;;5115189;27;20068;-85
2022/04/30 08:07:39;;;;;;;3.78;1.85;;;23.60;28.20;;;;;;5115451;27;20062;-85
2022/04/30 08:10:05;;;;;;;7.55;2.70;;;23.80;28.00;;;;;;5115102;27;20113;-84
2022/04/30 08:12:31;;;;;;;6.10;2.65;;;23.90;27.20;;;;;;5114289;27;20024;-84
2022/04/30 08:14:56;;;;;;;5.78;2.78;;;24.00;27.20;;;;;;5114946;27;20079;-84
2022/04/30 08:17:23;;;;;;;8.23;3.30;;;23.80;27.90;;;;;;5115306;27;20023;-85
2022/04/30 08:19:49;;;;;;;8.23;3.10;;;23.30;28.00;;;;;;5115204;27;20027;-83
2022/04/30 08:22:14;;;;;;;7.35;3.10;;;23.10;28.20;;;;;;5115045;27;20043;-84
2022/04/30 08:24:40;;;;;;;6.57;2.90;;;23.10;29.70;;;;;;5114571;27;20487;-84
2022/04/30 08:27:06;;;;;;;10.13;2.95;;;23.20;29.00;;;;;;5114351;27;20028;-82
2022/04/30 08:29:31;;;;;;;6.03;2.70;;;23.30;28.80;;;;;;5114941;27;20054;-84
2022/04/30 08:31:57;;;;;;;9.35;3.10;;;22.90;29.40;;;;;;5115142;27;20027;-84
2022/04/30 08:34:23;;;;;;;9.90;3.50;;;22.90;29.60;;;;;;5115523;27;20026;-84
2022/04/30 08:36:49;;;;;;;8.77;2.75;;;22.70;29.50;;;;;;5115325;27;20567;-85
2022/04/30 08:39:15;;;;;;;6.53;2.42;;;22.40;30.30;;;;;;5114405;27;20106;-84
2022/04/30 08:41:43;;;;;;;6.28;2.08;;;22.60;30.20;;;;;;5132928;27;20084;-83
2022/04/30 08:44:14;;;;;;;4.85;2.15;;;23.20;28.20;;;;;;5132424;27;20033;-85
2022/04/30 08:46:41;;;;;;;4.18;2.28;;;23.20;29.00;;;;;;5114711;27;20487;-85
2022/04/30 08:49:07;;;;;;;4.03;2.22;;;23.20;28.50;;;;;;5114687;27;20459;-85
2022/04/30 08:51:33;;;;;;;7.75;1.90;;;23.40;28.30;;;;;;5114162;27;20030;-85
2022/04/30 08:53:58;;;;;;;3.83;1.90;;;23.50;27.50;;;;;;5114374;27;20019;-84
2022/04/30 08:56:24;;;;;;;4.15;1.75;;;23.60;27.60;;;;;;5113736;27;20023;-83
2022/04/30 08:58:56;;;;;;;4.22;1.70;;;23.70;27.40;;;;;;5113545;27;20106;-85
2022/04/30 09:01:22;;;;;;;3.65;2.50;;;24.10;27.10;;;;;;5114111;28;20030;-86
2022/04/30 09:03:48;;;;;;;6.40;2.03;;;24.60;26.70;;;;;;5132432;27;20023;-85
2022/04/30 09:06:18;;;;;;;3.35;1.73;;;25.10;26.30;;;;;;5114312;27;20023;-86
2022/04/30 09:08:51;;;;;;;5.57;2.35;;;25.20;26.30;;;;;;5113284;28;20026;-84
2022/04/30 09:11:25;;;;;;;5.30;2.63;;;24.80;25.90;;;;;;5132474;28;20030;-84
2022/04/30 09:13:51;;;;;;;4.28;2.30;;;24.50;25.40;;;;;;5114011;28;20087;-85
2022/04/30 09:16:22;;;;;;;6.18;1.92;;;24.80;26.10;;;;;;5113592;28;20031;-85
2022/04/30 09:18:49;;;;;;;8.52;2.47;;;25.10;26.10;;;;;;5132911;28;20031;-86
2022/04/30 09:21:17;;;;;;;11.40;2.75;;;25.70;25.00;;;;;;5113801;28;20397;-84
2022/04/30 09:23:43;;;;;;;6.30;2.53;;;25.80;24.70;;;;;;5132381;28;20039;-84
2022/04/30 09:26:10;;;;;;;12.38;3.00;;;26.00;24.10;;;;;;5113690;28;20499;-85
2022/04/30 09:28:38;;;;;;;4.30;1.60;;;25.80;24.40;;;;;;5113867;28;20235;-84
2022/04/30 09:31:16;;;;;;;9.13;2.28;;;26.00;24.70;;;;;;5113547;28;20058;-86
2022/04/30 09:33:55;;;;;;;5.63;2.00;;;26.40;24.10;;;;;;5113413;28;20416;-86
2022/04/30 09:39:14;;;;;;;9.25;2.75;;;27.00;23.80;;;;;;5132573;28;20090;-86
2022/04/30 09:41:40;;;;;;;6.22;2.40;;;27.30;23.40;;;;;;5113938;28;20058;-85
2022/04/30 09:44:08;;;;;;;6.47;2.85;;;27.50;22.80;;;;;;5114042;28;20031;-84
2022/04/30 09:46:39;;;;;;;7.22;3.10;;;27.10;23.20;;;;;;5113589;28;20395;-85
2022/04/30 09:54:37;;;;;;;5.78;2.33;;;27.10;21.40;;;;;;5132160;28;20046;-86
2022/04/30 09:57:09;;;;;;;4.60;2.80;;;26.50;22.10;;;;;;5113654;28;20027;-85
2022/04/30 09:59:37;;;;;;;10.05;2.67;;;26.80;20.70;;;;;;5131606;28;20027;-84
2022/04/30 10:02:07;;;;;;;8.50;2.22;;;26.40;21.00;;;;;;5113407;28;20035;-86
2022/04/30 10:04:34;;;;;;;8.23;2.03;;;26.00;20.50;;;;;;5113995;28;20034;-86
2022/04/30 10:07:02;;;;;;;6.90;2.83;;;25.70;19.60;;;;;;5114482;27;20034;-86
2022/04/30 10:09:42;;;;;;;7.72;2.08;;;26.20;22.30;;;;;;5117737;27;20034;-84
2022/04/30 10:12:31;;;;;;;3.10;1.83;;;26.20;19.30;;;;;;5117875;27;20475;-84
2022/04/30 10:15:11;;;;;;;2.40;1.73;;;25.70;20.90;;;;;;5117629;27;20035;-85
2022/04/30 10:17:41;;;;;;;5.97;1.67;;;25.60;20.40;;;;;;5117455;27;20030;-85
2022/04/30 10:20:18;;;;;;;8.18;1.90;;;25.10;21.90;;;;;;5117957;27;20484;-84
2022/04/30 10:22:52;;;;;;;4.13;1.85;;;25.00;22.00;;;;;;5117180;27;20038;-86
2022/04/30 10:25:39;;;;;;;6.13;2.70;;;24.60;22.80;;;;;;5117966;27;20027;-84
2022/04/30 10:28:23;;;;;;;7.20;2.20;;;24.10;24.30;;;;;;5118015;27;20066;-84
2022/04/30 10:31:01;;;;;;;5.15;1.80;;;23.80;25.70;;;;;;5115573;27;20058;-84
2022/04/30 10:33:28;;;;;;;3.50;2.03;;;23.90;24.10;;;;;;5116501;27;20027;-85
2022/04/30 10:36:08;;;;;;;6.53;1.75;;;23.60;24.00;;;;;;5117408;27;20051;-84
2022/04/30 10:38:34;;;;;;;7.95;2.20;;;23.60;23.90;;;;;;5116892;27;20114;-84
2022/04/30 10:41:01;;;;;;;6.70;1.92;;;23.50;25.30;;;;;;5117313;27;20388;-85
2022/04/30 10:43:34;;;;;;;5.70;2.53;;;23.60;25.60;;;;;;5117094;27;20023;-84
2022/04/30 10:46:01;;;;;;;6.40;2.67;;;23.60;24.80;;;;;;5117210;27;20047;-85
2022/04/30 10:48:28;;;;;;;9.45;2.55;;;23.60;24.90;;;;;;5117078;27;20034;-84
2022/04/30 10:51:37;;;;;;;5.60;2.80;;;23.50;25.60;;;;;;5115943;27;20031;-83
2022/04/30 10:54:09;;;;;;;10.07;2.38;;;23.30;25.40;;;;;;5088487;27;20039;-84
2022/04/30 10:56:36;;;;;;;6.40;2.22;;;23.20;25.50;;;;;;5135381;27;20023;-84
2022/04/30 10:59:01;;;;;;;5.00;2.55;;;23.20;26.00;;;;;;5116847;27;20051;-85
2022/04/30 11:01:27;;;;;;;2.65;1.67;;;23.30;26.70;;;;;;5116792;27;20039;-86
2022/04/30 11:03:53;;;;;;;4.40;2.78;;;23.20;26.60;;;;;;5116941;27;20057;-86
2022/04/30 11:06:23;;;;;;;4.18;1.80;;;23.50;25.60;;;;;;5116877;27;20088;-84
2022/04/30 11:08:56;;;;;;;4.95;2.40;;;23.30;25.20;;;;;;5117087;27;20030;-85
2022/04/30 11:11:22;;;;;;;5.18;1.83;;;23.30;25.20;;;;;;5117234;27;20098;-86
2022/04/30 11:14:13;;;;;;;13.25;2.67;;;23.40;24.90;;;;;;5117040;27;20506;-87
2022/04/30 11:16:42;;;;;;;3.60;1.90;;;23.60;24.90;;;;;;5116745;27;20023;-85
2022/04/30 11:19:11;;;;;;;6.07;2.17;;;23.60;24.00;;;;;;5134551;27;20102;-85
2022/04/30 11:21:42;;;;;;;2.65;1.52;;;23.50;24.50;;;;;;5116498;27;20487;-85
2022/04/30 11:24:08;;;;;;;6.68;1.95;;;23.40;24.80;;;;;;5116718;27;20035;-85
2022/04/30 11:26:43;;;;;;;4.43;1.70;;;23.40;24.60;;;;;;5116988;27;20114;-85
2022/04/30 11:29:10;;;;;;;3.22;1.75;;;23.40;25.10;;;;;;5116521;27;20038;-86
2022/04/30 11:31:36;;;;;;;4.25;1.70;;;23.40;24.30;;;;;;5116730;27;20027;-85
2022/04/30 11:34:28;;;;;;;9.20;2.13;;;23.00;24.20;;;;;;5134579;27;20031;-83
2022/04/30 11:36:56;;;;;;;7.45;2.25;;;22.80;24.50;;;;;;5130334;27;20031;-84
2022/04/30 11:39:22;;;;;;;5.00;2.03;;;22.80;25.10;;;;;;5116396;27;20110;-85
2022/04/30 11:41:50;;;;;;;6.55;2.25;;;22.70;25.00;;;;;;5116255;27;20126;-84
2022/04/30 11:44:17;;;;;;;6.43;2.05;;;22.80;24.20;;;;;;5116521;27;20376;-85
2022/04/30 11:46:44;;;;;;;4.68;2.28;;;22.80;24.10;;;;;;5134411;27;20023;-85
2022/04/30 11:49:13;;;;;;;2.65;1.48;;;22.60;24.50;;;;;;5116002;27;20023;-86
2022/04/30 11:51:40;;;;;;;6.72;2.22;;;22.60;25.00;;;;;;5116241;27;20152;-85
2022/04/30 11:54:14;;;;;;;7.40;1.80;;;22.70;25.80;;;;;;5116260;27;20027;-86
2022/04/30 11:56:43;;;;;;;6.47;2.05;;;22.80;24.70;;;;;;5116259;27;20024;-86
2022/04/30 11:59:09;;;;;;;8.48;2.17;;;22.70;25.40;;;;;;5115622;27;20062;-85
2022/04/30 12:01:38;;;;;;;7.80;2.03;;;22.70;24.80;;;;;;5115701;27;20039;-85
2022/04/30 12:04:11;;;;;;;7.63;2.00;;;22.90;24.80;;;;;;5134302;27;20110;-84
2022/04/30 12:06:45;;;;;;;3.95;1.90;;;22.90;24.50;;;;;;5116177;27;20038;-85
2022/04/30 12:09:14;;;;;;;6.65;1.75;;;22.80;24.40;;;;;;5134117;27;20399;-85
2022/04/30 12:11:42;;;;;;;3.22;2.20;;;22.60;25.10;;;;;;5116025;27;20110;-85
2022/04/30 12:14:09;;;;;;;6.38;2.22;;;22.40;24.30;;;;;;5134410;27;20027;-85
2022/04/30 12:16:39;;;;;;;5.13;1.90;;;22.30;24.90;;;;;;5115253;27;20180;-85
2022/04/30 12:24:49;;;;;;;6.55;2.17;;;22.30;24.90;;;;;;5134220;27;20110;-85
2022/04/30 12:27:23;;;;;;;3.63;1.60;;;22.20;24.80;;;;;;5115864;27;20106;-85
2022/04/30 12:30:03;;;;;;;11.13;3.33;;;22.10;24.80;;;;;;5115533;27;20024;-85
2022/04/30 12:32:30;;;;;;;7.00;2.50;;;22.10;25.90;;;;;;5114747;27;20023;-86
2022/04/30 12:34:57;;;;;;;6.93;2.33;;;22.10;25.70;;;;;;5115129;27;20030;-84
2022/04/30 12:37:33;;;;;;;3.85;1.63;;;22.20;25.70;;;;;;5115104;27;20554;-86
2022/04/30 12:40:00;;;;;;;12.05;3.10;;;22.30;25.50;;;;;;5132602;27;20106;-85
2022/04/30 12:42:25;;;;;;;7.15;2.13;;;22.30;25.70;;;;;;5114981;27;20031;-86
2022/04/30 12:44:51;;;;;;;4.72;1.70;;;22.30;25.60;;;;;;5115006;27;20015;-85
2022/04/30 12:47:17;;;;;;;4.88;2.13;;;22.40;25.80;;;;;;5115270;27;20027;-85
2022/04/30 12:49:42;;;;;;;8.07;2.03;;;22.40;25.50;;;;;;5115355;27;20487;-86
2022/04/30 12:52:08;;;;;;;18.88;1.83;;;22.30;26.20;;;;;;5115374;27;20388;-85
2022/04/30 12:54:34;;;;;;;4.03;1.73;;;22.30;25.80;;;;;;5134042;27;20395;-86
2022/04/30 12:56:59;;;;;;;3.58;1.38;;;22.00;25.70;;;;;;5133220;27;20072;-86
2022/04/30 12:59:25;;;;;;;5.80;1.45;;;21.70;26.20;;;;;;5115270;27;20027;-86
2022/04/30 13:01:52;;;;;;;3.50;1.63;;;21.70;26.60;;;;;;5115104;28;20031;-86
2022/04/30 13:04:18;;;;;;;7.85;2.10;;;21.50;26.60;;;;;;5114180;28;20038;-86
2022/04/30 13:06:44;;;;;;;6.32;2.38;;;21.60;27.10;;;;;;5112814;28;20023;-85
2022/04/30 13:14:38;;;;;;;4.63;2.35;;;22.00;27.50;;;;;;5133586;28;20083;-86
2022/04/30 13:17:04;;;;;;;6.20;1.98;;;22.10;27.20;;;;;;5114555;28;20023;-85
2022/04/30 13:19:33;;;;;;;4.65;2.05;;;22.30;26.40;;;;;;5115331;28;20019;-85
2022/04/30 13:21:59;;;;;;;9.55;2.63;;;22.10;26.40;;;;;;5114602;28;20063;-85
2022/04/30 13:24:26;;;;;;;3.53;1.92;;;21.90;25.60;;;;;;5114728;28;20484;-85
2022/04/30 13:26:52;;;;;;;10.18;2.33;;;21.60;26.20;;;;;;5115188;28;20545;-85
2022/04/30 13:29:18;;;;;;;7.15;2.05;;;21.50;25.90;;;;;;5114760;28;20118;-85
2022/04/30 13:31:43;;;;;;;5.05;1.90;;;21.50;26.20;;;;;;5114990;28;20055;-84
2022/04/30 13:34:10;;;;;;;4.78;1.90;;;21.50;27.00;;;;;;5114964;28;20755;-85
2022/04/30 13:36:36;;;;;;;3.20;1.40;;;21.60;26.60;;;;;;5114681;28;20023;-85
2022/04/30 13:39:03;;;;;;;7.13;1.90;;;21.70;26.40;;;;;;5114709;28;20084;-86
2022/04/30 13:41:28;;;;;;;7.10;1.38;;;21.60;25.80;;;;;;5114063;28;20035;-86
2022/04/30 13:43:54;;;;;;;4.13;1.75;;;21.70;26.20;;;;;;5118050;27;20027;-85